Date,TemperatureHighF,TemperatureAvgF,TemperatureLowF,DewpointHighF,DewpointAvgF,DewpointLowF,HumidityHigh,HumidityAvg,HumidityLow,PressureMaxIn,PressureMinIn,WindSpeedMaxMPH,WindSpeedAvgMPH,GustSpeedMaxMPH,PrecipitationSumIn
2013-2-1,35.6,29.8,24.1,17.0,10.5,5.0,54,44,39,29.81,29.31,8,4,9,0.00
2013-2-2,32.4,26.0,19.2,11.0,6.9,2.0,48,44,40,29.96,29.75,5,1,7,0.00
2013-2-3,28.2,26.1,21.4,22.0,17.6,9.0,84,71,45,29.78,29.46,3,0,4,0.00
2013-2-4,31.8,25.5,21.7,21.0,11.3,5.0,84,56,42,29.66,29.43,8,3,9,0.00
2013-2-5,31.1,26.4,21.9,20.0,11.0,5.0,76,52,45,29.75,29.66,4,0,4,0.00
2013-2-6,39.9,30.7,24.4,25.0,18.4,8.0,85,62,43,30.02,29.63,7,2,8,0.00
2013-2-7,32.7,25.9,17.4,8.0,3.7,0.0,54,39,31,30.25,30.02,7,0,7,0.00
2013-2-8,27.7,24.4,18.1,21.0,16.3,3.0,94,73,36,30.22,29.37,7,1,8,0.00
2013-2-9,23.0,19.5,16.2,21.0,14.5,3.0,95,82,54,29.93,29.34,10,5,10,0.00
2013-2-10,40.1,22.4,4.1,15.0,4.9,-10.0,62,47,30,30.11,29.93,5,1,8,0.04
2013-2-11,34.5,28.6,17.2,34.0,24.0,7.0,98,83,62,30.08,29.34,0,0,0,0.20
2013-2-12,44.8,37.6,33.4,35.0,27.5,24.0,98,68,49,29.60,29.34,9,3,11,0.00
2013-2-13,43.7,34.5,27.7,26.0,23.5,21.0,80,65,49,29.58,29.43,5,0,6,0.00
2013-2-14,44.6,35.3,29.1,25.0,22.0,20.0,75,59,42,29.72,29.43,5,0,5,0.00
2013-2-15,49.3,37.3,26.6,36.0,28.7,21.0,90,71,49,29.72,29.60,5,1,8,0.00
2013-2-16,37.9,34.7,30.4,32.0,26.1,16.0,92,72,51,29.66,29.46,5,1,6,0.00
2013-2-17,30.2,22.7,17.8,17.0,9.3,0.0,83,57,44,29.46,29.13,10,6,12,0.00
2013-2-18,33.6,23.1,15.1,6.0,1.9,-2.0,47,40,25,29.86,29.40,9,4,15,0.00
2013-2-19,43.2,34.1,23.4,39.0,21.0,4.0,98,62,42,29.90,29.31,3,0,3,0.24
2013-2-20,39.0,32.9,27.3,37.0,20.2,11.0,98,62,45,29.49,29.28,8,4,10,0.00
2013-2-21,35.4,28.3,24.8,15.0,11.8,10.0,56,50,43,29.90,29.49,8,4,10,0.00
2013-2-22,40.8,32.1,23.4,24.0,18.3,12.0,72,57,42,30.11,29.93,5,1,6,0.00
2013-2-23,38.1,34.1,29.7,33.0,27.4,22.0,96,77,63,30.05,29.63,3,0,3,0.00
2013-2-24,34.9,33.9,32.7,34.0,33.3,32.0,98,97,95,29.63,29.43,4,0,4,0.16
2013-2-25,37.9,34.3,30.9,34.0,32.2,30.0,98,92,74,29.96,29.63,0,0,0,0.31
2013-2-26,42.3,35.1,28.9,37.0,29.8,25.0,98,82,56,30.05,29.90,3,0,6,0.08
2013-2-27,40.5,37.5,34.2,40.0,36.3,31.0,98,96,84,29.90,29.31,6,1,8,1.10
2013-2-28,43.9,37.4,33.4,41.0,35.7,33.0,98,95,84,29.37,29.25,3,0,3,0.00